Canada's Largest FIR

CZEG Edmonton

Screenshot by Dan Pergau

  Recent News


  Upcoming Events

Northern Lights Tuesdays  February 27, 2024 23:59z
24 Hours of VATSIM  March 2, 2024 22:00z

  Online Controllers

No controllers online.

  View Our Airspace

  Weather

CYYC - Calgary International Airport   VFR
CYYC 262300Z 05014KT 15SM FEW020 SCT300 M16/M22 A2977 RMK SC2CI2 SLP166

CYEG - Edmonton International Airport   MVFR
CYEG 262300Z 34008KT 4SM -SN BR BKN032 BKN160 OVC220 M20/M23 A2996 RMK SC5AS1CS2 CIG DIF SLP214

CYXY - Whitehorse / Erik Nielsen International Airport   VFR
CYXY 262300Z 13008KT 40SM FEW040 M13/M22 A2998 RMK SC1 SLP219

CYZF - Yellowknife International Airport   VFR
CYZF 262300Z 31013KT 15SM BKN060 BKN240 M24/M29 A3016 RMK SC5CI2 SLP248

CYMM - Fort McMurray Airport   VFR
CYMM 262300Z AUTO 32005KT 9SM CLR M21/M27 A3014 RMK SLP254

CYQF - Red Deer Regional Airport   VFR
CYQF 262300Z AUTO 02010KT 9SM CLR M20/M24 A2986 RMK SLP193

CZVL - Edmonton / Villeneuve Airport   VFR
CZVL 262312Z AUTO 01005KT 9SM CLR M20/M24 A2998 RMK SLP222

CYBW - Calgary / Springbank Airport   VFR
CYBW 262300Z AUTO 07007KT 9SM CLR M17/M22 A2972 RMK SLP155

CYOD - CFB Cold Lake   VFR
CYOD 262300Z 01008KT 15SM OVC080 M19/M26 A3001 RMK AS8 DENSITY ALT -2473FT SLP217